sensor_id;sensor_type;location;lat;lon;timestamp;temperature;humidity
32614;DHT22;19031;51.400;6.770;2023-08-20T00:00:27;19.00;99.90
32614;DHT22;19031;51.400;6.770;2023-08-20T00:03:10;19.00;99.90
32614;DHT22;19031;51.400;6.770;2023-08-20T00:05:36;18.90;99.90
32614;DHT22;19031;51.400;6.770;2023-08-20T00:08:02;18.90;99.90
32614;DHT22;19031;51.400;6.770;2023-08-20T00:10:28;18.90;99.90
32614;DHT22;19031;51.400;6.770;2023-08-20T00:12:53;18.90;99.90
32614;DHT22;19031;51.400;6.770;2023-08-20T00:15:19;18.80;99.90
32614;DHT22;19031;51.400;6.770;2023-08-20T00:17:45;18.80;99.90
32614;DHT22;19031;51.400;6.770;2023-08-20T00:20:14;18.80;99.90
32614;DHT22;19031;51.400;6.770;2023-08-20T00:22:40;18.80;99.90
32614;DHT22;19031;51.400;6.770;2023-08-20T00:25:08;18.80;99.90
32614;DHT22;19031;51.400;6.770;2023-08-20T00:27:34;18.80;99.90
32614;DHT22;19031;51.400;6.770;2023-08-20T00:30:00;18.80;99.90
32614;DHT22;19031;51.400;6.770;2023-08-20T00:32:26;18.80;99.90
32614;DHT22;19031;51.400;6.770;2023-08-20T00:34:52;18.70;99.90
32614;DHT22;19031;51.400;6.770;2023-08-20T00:37:17;18.70;99.90
32614;DHT22;19031;51.400;6.770;2023-08-20T00:39:43;18.70;99.90
32614;DHT22;19031;51.400;6.770;2023-08-20T00:42:09;18.60;99.90
32614;DHT22;19031;51.400;6.770;2023-08-20T00:44:35;18.60;99.90
32614;DHT22;19031;51.400;6.770;2023-08-20T00:47:02;18.60;99.90
32614;DHT22;19031;51.400;6.770;2023-08-20T00:49:29;18.50;99.90
32614;DHT22;19031;51.400;6.770;2023-08-20T00:51:55;18.50;99.90
32614;DHT22;19031;51.400;6.770;2023-08-20T00:54:22;18.50;99.90
32614;DHT22;19031;51.400;6.770;2023-08-20T00:56:49;18.50;99.90
32614;DHT22;19031;51.400;6.770;2023-08-20T00:59:16;18.40;99.90
32614;DHT22;19031;51.400;6.770;2023-08-20T01:01:41;18.40;99.90
32614;DHT22;19031;51.400;6.770;2023-08-20T01:04:07;18.50;99.90
32614;DHT22;19031;51.400;6.770;2023-08-20T01:06:44;18.50;99.90
32614;DHT22;19031;51.400;6.770;2023-08-20T01:11:59;18.40;99.90
32614;DHT22;19031;51.400;6.770;2023-08-20T01:14:24;18.40;99.90
32614;DHT22;19031;51.400;6.770;2023-08-20T01:16:50;18.40;99.90
32614;DHT22;19031;51.400;6.770;2023-08-20T01:19:20;18.30;99.90
32614;DHT22;19031;51.400;6.770;2023-08-20T01:24:38;18.30;99.90
32614;DHT22;19031;51.400;6.770;2023-08-20T01:30:16;18.30;99.90
32614;DHT22;19031;51.400;6.770;2023-08-20T01:32:43;18.30;99.90
32614;DHT22;19031;51.400;6.770;2023-08-20T01:35:13;18.30;99.90
32614;DHT22;19031;51.400;6.770;2023-08-20T01:37:41;18.20;99.90
32614;DHT22;19031;51.400;6.770;2023-08-20T01:40:08;18.20;99.90
32614;DHT22;19031;51.400;6.770;2023-08-20T01:42:36;18.20;99.90
32614;DHT22;19031;51.400;6.770;2023-08-20T01:45:03;18.20;99.90
32614;DHT22;19031;51.400;6.770;2023-08-20T01:47:28;18.20;99.90
32614;DHT22;19031;51.400;6.770;2023-08-20T01:49:54;18.20;99.90
32614;DHT22;19031;51.400;6.770;2023-08-20T01:52:20;18.10;99.90
32614;DHT22;19031;51.400;6.770;2023-08-20T01:54:48;18.10;99.90
32614;DHT22;19031;51.400;6.770;2023-08-20T01:57:14;18.20;99.90
32614;DHT22;19031;51.400;6.770;2023-08-20T01:59:40;18.10;99.90
32614;DHT22;19031;51.400;6.770;2023-08-20T02:02:05;18.20;99.90
32614;DHT22;19031;51.400;6.770;2023-08-20T02:04:32;18.10;99.90
32614;DHT22;19031;51.400;6.770;2023-08-20T02:06:57;18.10;99.90
32614;DHT22;19031;51.400;6.770;2023-08-20T02:09:23;18.10;99.90
32614;DHT22;19031;51.400;6.770;2023-08-20T02:11:50;18.20;99.90
32614;DHT22;19031;51.400;6.770;2023-08-20T02:14:15;18.20;99.90
32614;DHT22;19031;51.400;6.770;2023-08-20T02:16:41;18.30;99.90
32614;DHT22;19031;51.400;6.770;2023-08-20T02:19:07;18.40;99.90
32614;DHT22;19031;51.400;6.770;2023-08-20T02:21:33;18.50;99.90
32614;DHT22;19031;51.400;6.770;2023-08-20T02:23:58;18.60;99.90
32614;DHT22;19031;51.400;6.770;2023-08-20T02:26:24;18.60;99.90
32614;DHT22;19031;51.400;6.770;2023-08-20T02:28:49;18.70;99.90
32614;DHT22;19031;51.400;6.770;2023-08-20T02:31:15;18.80;99.90
32614;DHT22;19031;51.400;6.770;2023-08-20T02:33:41;18.80;99.90
32614;DHT22;19031;51.400;6.770;2023-08-20T02:36:06;18.90;99.90
32614;DHT22;19031;51.400;6.770;2023-08-20T02:38:32;18.90;99.90
32614;DHT22;19031;51.400;6.770;2023-08-20T02:40:57;19.00;99.90
32614;DHT22;19031;51.400;6.770;2023-08-20T02:43:23;19.10;99.90
32614;DHT22;19031;51.400;6.770;2023-08-20T02:45:49;19.10;99.90
32614;DHT22;19031;51.400;6.770;2023-08-20T02:48:14;19.20;99.90
32614;DHT22;19031;51.400;6.770;2023-08-20T02:50:40;19.10;99.90
32614;DHT22;19031;51.400;6.770;2023-08-20T02:53:06;19.20;99.90
32614;DHT22;19031;51.400;6.770;2023-08-20T02:55:33;19.20;99.90
32614;DHT22;19031;51.400;6.770;2023-08-20T02:57:59;19.20;99.90
32614;DHT22;19031;51.400;6.770;2023-08-20T03:00:25;19.20;99.90
32614;DHT22;19031;51.400;6.770;2023-08-20T03:02:50;19.10;99.90
32614;DHT22;19031;51.400;6.770;2023-08-20T03:05:16;19.10;99.90
32614;DHT22;19031;51.400;6.770;2023-08-20T03:07:42;19.10;99.90
32614;DHT22;19031;51.400;6.770;2023-08-20T03:10:07;18.90;99.90
32614;DHT22;19031;51.400;6.770;2023-08-20T03:12:33;18.90;99.90
32614;DHT22;19031;51.400;6.770;2023-08-20T03:14:59;19.00;99.90
32614;DHT22;19031;51.400;6.770;2023-08-20T03:17:25;18.90;99.90
32614;DHT22;19031;51.400;6.770;2023-08-20T03:19:59;18.90;99.90
32614;DHT22;19031;51.400;6.770;2023-08-20T03:22:25;18.90;99.90
32614;DHT22;19031;51.400;6.770;2023-08-20T03:24:52;18.90;99.90
32614;DHT22;19031;51.400;6.770;2023-08-20T03:27:18;19.00;99.90
32614;DHT22;19031;51.400;6.770;2023-08-20T03:29:44;19.00;99.90
32614;DHT22;19031;51.400;6.770;2023-08-20T03:32:10;19.10;99.90
32614;DHT22;19031;51.400;6.770;2023-08-20T03:34:35;19.10;99.90
32614;DHT22;19031;51.400;6.770;2023-08-20T03:37:02;19.10;99.90
32614;DHT22;19031;51.400;6.770;2023-08-20T03:39:28;19.20;99.90
32614;DHT22;19031;51.400;6.770;2023-08-20T03:41:53;19.20;99.90
32614;DHT22;19031;51.400;6.770;2023-08-20T03:44:19;19.20;99.90
32614;DHT22;19031;51.400;6.770;2023-08-20T03:46:45;19.20;99.90
32614;DHT22;19031;51.400;6.770;2023-08-20T03:49:10;19.20;99.90
32614;DHT22;19031;51.400;6.770;2023-08-20T03:51:36;19.10;99.90
32614;DHT22;19031;51.400;6.770;2023-08-20T03:54:02;19.00;99.90
32614;DHT22;19031;51.400;6.770;2023-08-20T03:56:28;19.00;99.90
32614;DHT22;19031;51.400;6.770;2023-08-20T03:58:54;19.00;99.90
32614;DHT22;19031;51.400;6.770;2023-08-20T04:01:19;18.90;99.90
32614;DHT22;19031;51.400;6.770;2023-08-20T04:03:46;18.90;99.90
32614;DHT22;19031;51.400;6.770;2023-08-20T04:06:12;18.80;99.90
32614;DHT22;19031;51.400;6.770;2023-08-20T04:08:37;18.80;99.90
32614;DHT22;19031;51.400;6.770;2023-08-20T04:11:03;18.80;99.90
32614;DHT22;19031;51.400;6.770;2023-08-20T04:13:29;18.70;99.90
32614;DHT22;19031;51.400;6.770;2023-08-20T04:15:55;18.60;99.90
32614;DHT22;19031;51.400;6.770;2023-08-20T04:18:21;18.50;99.90
32614;DHT22;19031;51.400;6.770;2023-08-20T04:20:49;18.50;99.90
32614;DHT22;19031;51.400;6.770;2023-08-20T04:23:15;18.50;99.90
32614;DHT22;19031;51.400;6.770;2023-08-20T04:25:40;18.40;99.90
32614;DHT22;19031;51.400;6.770;2023-08-20T04:28:06;18.50;99.90
32614;DHT22;19031;51.400;6.770;2023-08-20T04:30:32;18.40;99.90
32614;DHT22;19031;51.400;6.770;2023-08-20T04:32:57;18.40;99.90
32614;DHT22;19031;51.400;6.770;2023-08-20T04:35:23;18.30;99.90
32614;DHT22;19031;51.400;6.770;2023-08-20T04:37:48;18.40;99.90
32614;DHT22;19031;51.400;6.770;2023-08-20T04:40:14;18.40;99.90
32614;DHT22;19031;51.400;6.770;2023-08-20T04:42:39;18.50;99.90
32614;DHT22;19031;51.400;6.770;2023-08-20T04:45:05;18.30;99.90
32614;DHT22;19031;51.400;6.770;2023-08-20T04:47:32;18.30;99.90
32614;DHT22;19031;51.400;6.770;2023-08-20T04:49:58;18.30;99.90
32614;DHT22;19031;51.400;6.770;2023-08-20T04:52:23;18.50;99.90
32614;DHT22;19031;51.400;6.770;2023-08-20T04:54:49;18.40;99.90
32614;DHT22;19031;51.400;6.770;2023-08-20T04:57:15;18.40;99.90
32614;DHT22;19031;51.400;6.770;2023-08-20T04:59:41;18.40;99.90
32614;DHT22;19031;51.400;6.770;2023-08-20T05:02:11;18.40;99.90
32614;DHT22;19031;51.400;6.770;2023-08-20T05:04:37;18.40;99.90
32614;DHT22;19031;51.400;6.770;2023-08-20T05:07:03;18.30;99.90
32614;DHT22;19031;51.400;6.770;2023-08-20T05:09:29;18.30;99.90
32614;DHT22;19031;51.400;6.770;2023-08-20T05:11:54;18.40;99.90
32614;DHT22;19031;51.400;6.770;2023-08-20T05:14:20;18.30;99.90
32614;DHT22;19031;51.400;6.770;2023-08-20T05:16:45;18.40;99.90
32614;DHT22;19031;51.400;6.770;2023-08-20T05:19:11;18.50;99.90
32614;DHT22;19031;51.400;6.770;2023-08-20T05:21:37;18.50;99.90
32614;DHT22;19031;51.400;6.770;2023-08-20T05:24:02;18.60;99.90
32614;DHT22;19031;51.400;6.770;2023-08-20T05:26:29;18.70;99.90
32614;DHT22;19031;51.400;6.770;2023-08-20T05:28:54;18.60;99.90
32614;DHT22;19031;51.400;6.770;2023-08-20T05:31:20;18.60;99.90
32614;DHT22;19031;51.400;6.770;2023-08-20T05:33:46;18.60;99.90
32614;DHT22;19031;51.400;6.770;2023-08-20T05:36:11;18.70;99.90
32614;DHT22;19031;51.400;6.770;2023-08-20T05:38:37;18.80;99.90
32614;DHT22;19031;51.400;6.770;2023-08-20T05:41:03;18.90;99.90
32614;DHT22;19031;51.400;6.770;2023-08-20T05:43:28;18.90;99.90
32614;DHT22;19031;51.400;6.770;2023-08-20T05:45:54;19.00;99.90
32614;DHT22;19031;51.400;6.770;2023-08-20T05:48:19;19.00;99.90
32614;DHT22;19031;51.400;6.770;2023-08-20T05:50:45;19.00;99.90
32614;DHT22;19031;51.400;6.770;2023-08-20T05:53:11;19.10;99.90
32614;DHT22;19031;51.400;6.770;2023-08-20T05:55:37;19.20;99.90
32614;DHT22;19031;51.400;6.770;2023-08-20T05:58:03;19.20;99.90
32614;DHT22;19031;51.400;6.770;2023-08-20T06:00:28;19.30;99.90
32614;DHT22;19031;51.400;6.770;2023-08-20T06:02:54;19.40;99.90
32614;DHT22;19031;51.400;6.770;2023-08-20T06:05:19;19.50;99.90
32614;DHT22;19031;51.400;6.770;2023-08-20T06:07:45;19.50;99.90
32614;DHT22;19031;51.400;6.770;2023-08-20T06:10:11;19.70;99.90
32614;DHT22;19031;51.400;6.770;2023-08-20T06:12:37;19.90;99.90
32614;DHT22;19031;51.400;6.770;2023-08-20T06:15:03;19.90;99.90
32614;DHT22;19031;51.400;6.770;2023-08-20T06:17:29;20.00;99.90
32614;DHT22;19031;51.400;6.770;2023-08-20T06:19:54;20.10;99.90
32614;DHT22;19031;51.400;6.770;2023-08-20T06:22:20;20.10;99.90
32614;DHT22;19031;51.400;6.770;2023-08-20T06:24:45;20.30;99.90
32614;DHT22;19031;51.400;6.770;2023-08-20T06:27:11;20.40;99.90
32614;DHT22;19031;51.400;6.770;2023-08-20T06:29:37;20.40;99.90
32614;DHT22;19031;51.400;6.770;2023-08-20T06:32:03;20.60;99.90
32614;DHT22;19031;51.400;6.770;2023-08-20T06:34:28;20.70;99.90
32614;DHT22;19031;51.400;6.770;2023-08-20T06:36:54;20.80;99.90
32614;DHT22;19031;51.400;6.770;2023-08-20T06:39:19;21.00;99.90
32614;DHT22;19031;51.400;6.770;2023-08-20T06:41:45;21.20;99.90
32614;DHT22;19031;51.400;6.770;2023-08-20T06:44:11;21.30;99.90
32614;DHT22;19031;51.400;6.770;2023-08-20T06:46:37;21.50;99.90
32614;DHT22;19031;51.400;6.770;2023-08-20T06:49:03;21.70;99.90
32614;DHT22;19031;51.400;6.770;2023-08-20T06:51:29;21.90;99.90
32614;DHT22;19031;51.400;6.770;2023-08-20T06:53:55;22.10;99.90
32614;DHT22;19031;51.400;6.770;2023-08-20T06:56:22;22.20;99.90
32614;DHT22;19031;51.400;6.770;2023-08-20T06:58:47;22.40;99.90
32614;DHT22;19031;51.400;6.770;2023-08-20T07:01:13;22.60;99.90
32614;DHT22;19031;51.400;6.770;2023-08-20T07:03:40;22.70;99.90
32614;DHT22;19031;51.400;6.770;2023-08-20T07:06:06;22.90;99.90
32614;DHT22;19031;51.400;6.770;2023-08-20T07:08:32;23.10;99.90
32614;DHT22;19031;51.400;6.770;2023-08-20T07:10:58;23.20;99.90
32614;DHT22;19031;51.400;6.770;2023-08-20T07:13:24;23.50;99.90
32614;DHT22;19031;51.400;6.770;2023-08-20T07:15:50;23.60;99.90
32614;DHT22;19031;51.400;6.770;2023-08-20T07:18:16;23.80;99.90
32614;DHT22;19031;51.400;6.770;2023-08-20T07:20:42;24.00;99.90
32614;DHT22;19031;51.400;6.770;2023-08-20T07:23:09;24.10;99.90
32614;DHT22;19031;51.400;6.770;2023-08-20T07:25:39;24.30;99.90
32614;DHT22;19031;51.400;6.770;2023-08-20T07:28:06;24.50;99.90
32614;DHT22;19031;51.400;6.770;2023-08-20T07:30:32;24.70;99.90
32614;DHT22;19031;51.400;6.770;2023-08-20T07:32:58;24.90;99.90
32614;DHT22;19031;51.400;6.770;2023-08-20T07:35:23;25.10;99.90
32614;DHT22;19031;51.400;6.770;2023-08-20T07:37:49;25.40;99.90
32614;DHT22;19031;51.400;6.770;2023-08-20T07:40:15;25.60;99.90
32614;DHT22;19031;51.400;6.770;2023-08-20T07:42:44;25.80;99.90
32614;DHT22;19031;51.400;6.770;2023-08-20T07:45:12;26.00;99.90
32614;DHT22;19031;51.400;6.770;2023-08-20T07:47:38;26.20;99.90
32614;DHT22;19031;51.400;6.770;2023-08-20T07:50:05;26.50;99.90
32614;DHT22;19031;51.400;6.770;2023-08-20T07:52:31;26.50;99.90
32614;DHT22;19031;51.400;6.770;2023-08-20T07:54:57;26.80;99.90
32614;DHT22;19031;51.400;6.770;2023-08-20T07:57:27;27.10;99.90
32614;DHT22;19031;51.400;6.770;2023-08-20T07:59:52;27.30;99.90
32614;DHT22;19031;51.400;6.770;2023-08-20T08:02:21;27.50;99.90
32614;DHT22;19031;51.400;6.770;2023-08-20T08:04:47;27.70;99.90
32614;DHT22;19031;51.400;6.770;2023-08-20T08:07:13;27.90;99.90
32614;DHT22;19031;51.400;6.770;2023-08-20T08:09:38;28.10;99.90
32614;DHT22;19031;51.400;6.770;2023-08-20T08:12:04;28.30;99.90
32614;DHT22;19031;51.400;6.770;2023-08-20T08:14:31;28.50;99.90
32614;DHT22;19031;51.400;6.770;2023-08-20T08:16:59;28.90;99.90
32614;DHT22;19031;51.400;6.770;2023-08-20T08:19:25;29.00;99.90
32614;DHT22;19031;51.400;6.770;2023-08-20T08:21:51;29.30;99.90
32614;DHT22;19031;51.400;6.770;2023-08-20T08:24:17;29.40;99.90
32614;DHT22;19031;51.400;6.770;2023-08-20T08:26:43;29.70;99.90
32614;DHT22;19031;51.400;6.770;2023-08-20T08:29:09;30.10;99.90
32614;DHT22;19031;51.400;6.770;2023-08-20T08:31:38;30.30;99.90
32614;DHT22;19031;51.400;6.770;2023-08-20T08:34:04;30.50;99.90
32614;DHT22;19031;51.400;6.770;2023-08-20T08:36:29;30.60;99.90
32614;DHT22;19031;51.400;6.770;2023-08-20T08:38:55;30.80;99.90
32614;DHT22;19031;51.400;6.770;2023-08-20T08:41:22;30.80;99.90
32614;DHT22;19031;51.400;6.770;2023-08-20T08:43:51;31.30;99.90
32614;DHT22;19031;51.400;6.770;2023-08-20T08:46:17;31.60;99.90
32614;DHT22;19031;51.400;6.770;2023-08-20T08:48:44;31.30;99.90
32614;DHT22;19031;51.400;6.770;2023-08-20T08:51:14;31.60;99.90
32614;DHT22;19031;51.400;6.770;2023-08-20T08:53:42;32.10;99.90
32614;DHT22;19031;51.400;6.770;2023-08-20T08:56:10;32.10;99.90
32614;DHT22;19031;51.400;6.770;2023-08-20T08:58:36;32.50;99.90
32614;DHT22;19031;51.400;6.770;2023-08-20T09:01:01;32.50;99.90
32614;DHT22;19031;51.400;6.770;2023-08-20T09:03:27;32.50;99.90
32614;DHT22;19031;51.400;6.770;2023-08-20T09:05:58;32.30;99.90
32614;DHT22;19031;51.400;6.770;2023-08-20T09:08:32;32.30;99.90
32614;DHT22;19031;51.400;6.770;2023-08-20T09:11:01;32.10;99.90
32614;DHT22;19031;51.400;6.770;2023-08-20T09:13:35;31.70;99.90
32614;DHT22;19031;51.400;6.770;2023-08-20T09:16:04;31.30;99.90
32614;DHT22;19031;51.400;6.770;2023-08-20T09:18:31;30.90;99.90
32614;DHT22;19031;51.400;6.770;2023-08-20T09:20:57;30.20;99.90
32614;DHT22;19031;51.400;6.770;2023-08-20T09:23:28;29.80;99.90
32614;DHT22;19031;51.400;6.770;2023-08-20T09:25:54;29.50;99.90
32614;DHT22;19031;51.400;6.770;2023-08-20T09:28:20;29.50;99.90
32614;DHT22;19031;51.400;6.770;2023-08-20T09:30:56;29.30;99.90
32614;DHT22;19031;51.400;6.770;2023-08-20T09:33:22;29.90;99.90
32614;DHT22;19031;51.400;6.770;2023-08-20T09:35:51;30.30;99.90
32614;DHT22;19031;51.400;6.770;2023-08-20T09:38:19;30.80;99.90
32614;DHT22;19031;51.400;6.770;2023-08-20T09:40:53;31.10;99.90
32614;DHT22;19031;51.400;6.770;2023-08-20T09:43:24;31.60;99.90
32614;DHT22;19031;51.400;6.770;2023-08-20T09:45:55;31.90;99.90
32614;DHT22;19031;51.400;6.770;2023-08-20T09:48:22;31.50;99.90
32614;DHT22;19031;51.400;6.770;2023-08-20T09:50:51;31.10;99.90
32614;DHT22;19031;51.400;6.770;2023-08-20T09:55:58;30.10;99.90
32614;DHT22;19031;51.400;6.770;2023-08-20T09:58:26;30.10;99.90
32614;DHT22;19031;51.400;6.770;2023-08-20T10:00:53;30.00;99.90
32614;DHT22;19031;51.400;6.770;2023-08-20T10:03:20;29.80;99.90
32614;DHT22;19031;51.400;6.770;2023-08-20T10:05:49;29.60;99.90
32614;DHT22;19031;51.400;6.770;2023-08-20T10:08:15;29.60;99.90
32614;DHT22;19031;51.400;6.770;2023-08-20T10:10:41;29.70;99.90
32614;DHT22;19031;51.400;6.770;2023-08-20T10:13:07;29.70;99.90
32614;DHT22;19031;51.400;6.770;2023-08-20T10:15:33;29.60;99.90
32614;DHT22;19031;51.400;6.770;2023-08-20T10:18:01;29.60;99.90
32614;DHT22;19031;51.400;6.770;2023-08-20T10:20:29;29.60;99.90
32614;DHT22;19031;51.400;6.770;2023-08-20T10:23:00;29.50;99.90
32614;DHT22;19031;51.400;6.770;2023-08-20T10:25:29;29.60;99.90
32614;DHT22;19031;51.400;6.770;2023-08-20T10:28:41;29.50;99.90
32614;DHT22;19031;51.400;6.770;2023-08-20T10:33:37;29.40;99.90
32614;DHT22;19031;51.400;6.770;2023-08-20T10:36:14;29.30;99.90
32614;DHT22;19031;51.400;6.770;2023-08-20T10:38:40;29.50;99.90
32614;DHT22;19031;51.400;6.770;2023-08-20T10:41:07;29.90;99.90
32614;DHT22;19031;51.400;6.770;2023-08-20T10:43:40;30.60;99.90
32614;DHT22;19031;51.400;6.770;2023-08-20T10:46:17;31.50;99.90
32614;DHT22;19031;51.400;6.770;2023-08-20T10:56:57;33.90;98.70
32614;DHT22;19031;51.400;6.770;2023-08-20T10:59:28;33.20;98.00
32614;DHT22;19031;51.400;6.770;2023-08-20T11:01:58;32.50;98.60
32614;DHT22;19031;51.400;6.770;2023-08-20T11:04:29;32.30;99.20
32614;DHT22;19031;51.400;6.770;2023-08-20T11:06:58;31.90;99.50
32614;DHT22;19031;51.400;6.770;2023-08-20T11:09:25;31.40;99.90
32614;DHT22;19031;51.400;6.770;2023-08-20T11:11:51;31.00;99.90
32614;DHT22;19031;51.400;6.770;2023-08-20T11:14:18;30.50;99.90
32614;DHT22;19031;51.400;6.770;2023-08-20T11:16:45;30.30;99.90
32614;DHT22;19031;51.400;6.770;2023-08-20T11:19:12;30.30;99.90
32614;DHT22;19031;51.400;6.770;2023-08-20T11:21:42;30.60;99.90
32614;DHT22;19031;51.400;6.770;2023-08-20T11:24:08;31.40;99.90
32614;DHT22;19031;51.400;6.770;2023-08-20T11:26:35;31.70;98.80
32614;DHT22;19031;51.400;6.770;2023-08-20T11:29:05;31.80;98.30
32614;DHT22;19031;51.400;6.770;2023-08-20T11:31:31;31.60;97.90
32614;DHT22;19031;51.400;6.770;2023-08-20T11:33:57;31.20;98.60
32614;DHT22;19031;51.400;6.770;2023-08-20T11:36:23;31.00;98.90
32614;DHT22;19031;51.400;6.770;2023-08-20T11:38:55;31.20;99.10
32614;DHT22;19031;51.400;6.770;2023-08-20T11:41:21;32.00;98.70
32614;DHT22;19031;51.400;6.770;2023-08-20T11:43:48;33.00;97.40
32614;DHT22;19031;51.400;6.770;2023-08-20T11:46:15;33.40;97.60
32614;DHT22;19031;51.400;6.770;2023-08-20T11:51:26;33.50;95.00
32614;DHT22;19031;51.400;6.770;2023-08-20T11:53:51;32.80;95.70
32614;DHT22;19031;51.400;6.770;2023-08-20T11:56:17;32.90;95.60
32614;DHT22;19031;51.400;6.770;2023-08-20T11:58:43;32.90;94.90
32614;DHT22;19031;51.400;6.770;2023-08-20T12:01:08;32.60;95.50
32614;DHT22;19031;51.400;6.770;2023-08-20T12:03:37;32.20;95.40
32614;DHT22;19031;51.400;6.770;2023-08-20T12:06:20;32.00;96.90
32614;DHT22;19031;51.400;6.770;2023-08-20T12:08:46;32.10;96.60
32614;DHT22;19031;51.400;6.770;2023-08-20T12:11:12;32.30;95.40
32614;DHT22;19031;51.400;6.770;2023-08-20T12:13:38;32.90;94.50
32614;DHT22;19031;51.400;6.770;2023-08-20T12:16:04;32.90;95.10
32614;DHT22;19031;51.400;6.770;2023-08-20T12:18:30;32.60;95.70
32614;DHT22;19031;51.400;6.770;2023-08-20T12:20:56;32.20;95.70
32614;DHT22;19031;51.400;6.770;2023-08-20T12:23:21;31.90;95.60
32614;DHT22;19031;51.400;6.770;2023-08-20T12:25:51;31.60;96.40
32614;DHT22;19031;51.400;6.770;2023-08-20T12:28:17;31.40;97.20
32614;DHT22;19031;51.400;6.770;2023-08-20T12:30:44;31.20;97.60
32614;DHT22;19031;51.400;6.770;2023-08-20T12:33:11;31.20;98.30
32614;DHT22;19031;51.400;6.770;2023-08-20T12:35:37;31.30;97.50
32614;DHT22;19031;51.400;6.770;2023-08-20T12:38:03;31.40;98.90
32614;DHT22;19031;51.400;6.770;2023-08-20T12:40:30;31.40;97.40
32614;DHT22;19031;51.400;6.770;2023-08-20T12:42:56;31.20;98.00
32614;DHT22;19031;51.400;6.770;2023-08-20T12:45:21;31.10;98.50
32614;DHT22;19031;51.400;6.770;2023-08-20T12:47:47;31.00;97.50
32614;DHT22;19031;51.400;6.770;2023-08-20T12:50:13;30.80;98.10
32614;DHT22;19031;51.400;6.770;2023-08-20T12:52:40;30.90;98.60
32614;DHT22;19031;51.400;6.770;2023-08-20T12:55:06;31.00;97.20
32614;DHT22;19031;51.400;6.770;2023-08-20T12:57:34;31.30;98.20
32614;DHT22;19031;51.400;6.770;2023-08-20T13:00:00;31.30;97.70
32614;DHT22;19031;51.400;6.770;2023-08-20T13:02:26;31.20;97.50
32614;DHT22;19031;51.400;6.770;2023-08-20T13:04:52;31.30;97.80
32614;DHT22;19031;51.400;6.770;2023-08-20T13:07:18;31.20;96.30
32614;DHT22;19031;51.400;6.770;2023-08-20T13:09:44;31.20;97.00
32614;DHT22;19031;51.400;6.770;2023-08-20T13:12:11;31.50;98.00
32614;DHT22;19031;51.400;6.770;2023-08-20T13:14:39;32.00;96.60
32614;DHT22;19031;51.400;6.770;2023-08-20T13:17:06;32.60;95.30
32614;DHT22;19031;51.400;6.770;2023-08-20T13:19:32;33.20;94.20
32614;DHT22;19031;51.400;6.770;2023-08-20T13:21:57;33.70;92.60
32614;DHT22;19031;51.400;6.770;2023-08-20T13:24:23;33.80;91.10
32614;DHT22;19031;51.400;6.770;2023-08-20T13:26:49;33.70;90.80
32614;DHT22;19031;51.400;6.770;2023-08-20T13:29:14;34.00;90.50
32614;DHT22;19031;51.400;6.770;2023-08-20T13:31:40;33.80;88.30
32614;DHT22;19031;51.400;6.770;2023-08-20T13:34:06;33.30;89.90
32614;DHT22;19031;51.400;6.770;2023-08-20T13:36:32;32.50;90.20
32614;DHT22;19031;51.400;6.770;2023-08-20T13:39:00;32.00;92.00
32614;DHT22;19031;51.400;6.770;2023-08-20T13:41:26;31.90;91.30
32614;DHT22;19031;51.400;6.770;2023-08-20T13:43:51;31.70;90.70
32614;DHT22;19031;51.400;6.770;2023-08-20T13:46:18;31.70;92.20
32614;DHT22;19031;51.400;6.770;2023-08-20T13:48:44;31.70;91.50
32614;DHT22;19031;51.400;6.770;2023-08-20T13:51:10;31.70;92.70
32614;DHT22;19031;51.400;6.770;2023-08-20T13:53:35;31.70;91.70
32614;DHT22;19031;51.400;6.770;2023-08-20T13:56:19;31.80;92.60
32614;DHT22;19031;51.400;6.770;2023-08-20T13:58:45;31.60;91.00
32614;DHT22;19031;51.400;6.770;2023-08-20T14:01:10;31.70;94.10
32614;DHT22;19031;51.400;6.770;2023-08-20T14:03:37;31.70;92.70
32614;DHT22;19031;51.400;6.770;2023-08-20T14:06:03;31.90;91.20
32614;DHT22;19031;51.400;6.770;2023-08-20T14:08:28;31.90;92.30
32614;DHT22;19031;51.400;6.770;2023-08-20T14:10:54;32.40;91.90
32614;DHT22;19031;51.400;6.770;2023-08-20T14:13:19;32.70;88.20
32614;DHT22;19031;51.400;6.770;2023-08-20T14:15:45;32.50;91.00
32614;DHT22;19031;51.400;6.770;2023-08-20T14:18:10;31.80;90.80
32614;DHT22;19031;51.400;6.770;2023-08-20T14:20:36;31.80;91.40
32614;DHT22;19031;51.400;6.770;2023-08-20T14:23:02;31.50;89.60
32614;DHT22;19031;51.400;6.770;2023-08-20T14:25:27;31.70;91.60
32614;DHT22;19031;51.400;6.770;2023-08-20T14:27:53;32.00;91.60
32614;DHT22;19031;51.400;6.770;2023-08-20T14:30:32;32.20;90.70
32614;DHT22;19031;51.400;6.770;2023-08-20T14:33:03;32.40;90.00
32614;DHT22;19031;51.400;6.770;2023-08-20T14:35:29;32.90;88.40
32614;DHT22;19031;51.400;6.770;2023-08-20T14:37:55;32.90;88.20
32614;DHT22;19031;51.400;6.770;2023-08-20T14:40:21;32.80;83.10
32614;DHT22;19031;51.400;6.770;2023-08-20T14:42:46;32.70;89.10
32614;DHT22;19031;51.400;6.770;2023-08-20T14:45:12;32.60;89.10
32614;DHT22;19031;51.400;6.770;2023-08-20T14:47:39;32.50;87.30
32614;DHT22;19031;51.400;6.770;2023-08-20T14:50:06;32.50;91.70
32614;DHT22;19031;51.400;6.770;2023-08-20T14:52:32;32.50;90.50
32614;DHT22;19031;51.400;6.770;2023-08-20T14:54:58;32.40;91.10
32614;DHT22;19031;51.400;6.770;2023-08-20T14:57:23;32.40;89.10
32614;DHT22;19031;51.400;6.770;2023-08-20T14:59:50;32.10;90.40
32614;DHT22;19031;51.400;6.770;2023-08-20T15:02:16;32.30;85.00
32614;DHT22;19031;51.400;6.770;2023-08-20T15:04:42;31.80;87.60
32614;DHT22;19031;51.400;6.770;2023-08-20T15:07:08;31.80;90.40
32614;DHT22;19031;51.400;6.770;2023-08-20T15:09:33;31.90;91.00
32614;DHT22;19031;51.400;6.770;2023-08-20T15:12:01;32.10;91.30
32614;DHT22;19031;51.400;6.770;2023-08-20T15:14:27;31.90;87.10
32614;DHT22;19031;51.400;6.770;2023-08-20T15:16:53;31.90;90.20
32614;DHT22;19031;51.400;6.770;2023-08-20T15:19:19;32.20;92.10
32614;DHT22;19031;51.400;6.770;2023-08-20T15:21:45;32.20;87.80
32614;DHT22;19031;51.400;6.770;2023-08-20T15:24:14;32.20;87.20
32614;DHT22;19031;51.400;6.770;2023-08-20T15:26:40;32.50;91.40
32614;DHT22;19031;51.400;6.770;2023-08-20T15:29:05;32.70;86.70
32614;DHT22;19031;51.400;6.770;2023-08-20T15:31:31;32.50;91.30
32614;DHT22;19031;51.400;6.770;2023-08-20T15:33:57;32.60;92.30
32614;DHT22;19031;51.400;6.770;2023-08-20T15:36:25;32.60;88.10
32614;DHT22;19031;51.400;6.770;2023-08-20T15:38:51;32.60;87.70
32614;DHT22;19031;51.400;6.770;2023-08-20T15:41:16;32.00;84.90
32614;DHT22;19031;51.400;6.770;2023-08-20T15:43:42;32.20;90.00
32614;DHT22;19031;51.400;6.770;2023-08-20T15:46:08;32.00;90.30
32614;DHT22;19031;51.400;6.770;2023-08-20T15:48:33;32.00;88.10
32614;DHT22;19031;51.400;6.770;2023-08-20T15:50:59;31.90;88.90